Tofte, Minnesota
Current Conditions -  °F | °C
As of 3:53 AM on Saturday 29 Nov 2014 (Local Time) from KCKC Reporting Station
Overcast Overcast  
Wind Chill: 13°   Ceiling: 400
Heat Index: 19°   Visibility: 7mi
Dew Point: 16°   Wind: 5mph
Humidity: 86%   Direction: 180°S
Pressure: 29.58"   Gusts: NA
Location:  47.57°N, 90.84°W
Report Text: KCKC 290953Z AUTO 18004KT 7SM OVC004 M07/M09 A2958 RMK AO2
Loading
Personal Weather Stations






























Interactive Weather Map New forecast layout! Learn more

10-Day Weather Forecast

Advertisements
Track Severe Weather on mobile